Time;durP1;ratioP1;P1;durP2;ratioP2;P2;SDS_P1;SDS_P2;PMS_P1;PMS_P2;Temp;Humidity;BMP_temperature;BMP_pressure;BME280_temperature;BME280_humidity;BME280_pressure;Samples;Min_cycle;Max_cycle;Signal;HPM_P1;HPM_P2
2022/09/27 00:02:23;;;;;;;1.80;1.40;;;10.70;99.90;;;;;;4969124;28;20491;-51
2022/09/27 00:04:50;;;;;;;1.40;1.20;;;10.80;99.90;;;;;;4968848;28;21076;-51
2022/09/27 00:07:17;;;;;;;4.60;2.20;;;10.80;99.90;;;;;;4969279;28;20449;-52
2022/09/27 00:09:44;;;;;;;3.20;1.60;;;10.90;99.90;;;;;;4969197;28;20529;-51
2022/09/27 00:12:12;;;;;;;2.80;2.03;;;10.40;99.90;;;;;;4969160;28;20499;-51
2022/09/27 00:14:39;;;;;;;4.63;2.07;;;9.90;99.90;;;;;;4968846;28;20790;-52
2022/09/27 00:17:06;;;;;;;2.27;1.83;;;9.90;99.90;;;;;;4969048;28;20945;-51
2022/09/27 00:19:33;;;;;;;2.80;1.70;;;9.90;99.90;;;;;;4968945;28;21003;-51
2022/09/27 00:22:00;;;;;;;2.40;1.80;;;10.00;99.90;;;;;;4968927;28;20457;-51
2022/09/27 00:24:27;;;;;;;3.50;2.23;;;10.40;99.90;;;;;;4968764;28;20503;-51
2022/09/27 00:26:54;;;;;;;1.83;1.60;;;10.40;99.90;;;;;;4968882;28;21085;-51
2022/09/27 00:29:22;;;;;;;2.50;1.43;;;10.50;99.90;;;;;;4968919;28;20497;-51
2022/09/27 00:31:49;;;;;;;3.03;1.90;;;10.80;99.90;;;;;;4969041;28;20505;-51
2022/09/27 00:34:20;;;;;;;6.60;2.73;;;10.90;99.90;;;;;;4968735;28;20871;-51
2022/09/27 00:36:47;;;;;;;5.97;2.57;;;11.10;99.90;;;;;;4971931;28;20948;-51
2022/09/27 00:39:14;;;;;;;3.73;2.53;;;11.20;99.90;;;;;;4972227;28;20592;-51
2022/09/27 00:41:42;;;;;;;3.47;2.10;;;11.20;99.90;;;;;;4972165;28;21080;-51
2022/09/27 00:44:39;;;;;;;3.70;1.90;;;11.10;99.90;;;;;;4972109;28;20544;-51
2022/09/27 00:47:13;;;;;;;2.37;1.90;;;10.80;99.90;;;;;;4962615;28;20449;-51
2022/09/27 00:49:45;;;;;;;2.27;1.77;;;10.90;99.90;;;;;;4971877;28;20515;-51
2022/09/27 00:52:16;;;;;;;3.10;2.27;;;10.90;99.90;;;;;;4972139;28;20874;-51
2022/09/27 00:54:49;;;;;;;4.93;2.17;;;10.80;99.90;;;;;;4972052;28;20502;-52
2022/09/27 00:57:17;;;;;;;2.60;2.10;;;10.80;99.90;;;;;;4971960;28;20493;-51
2022/09/27 00:59:47;;;;;;;2.10;1.80;;;10.80;99.90;;;;;;4971790;28;20496;-51
2022/09/27 01:02:16;;;;;;;2.73;1.93;;;10.70;99.90;;;;;;4971793;28;20446;-51
2022/09/27 01:04:44;;;;;;;2.43;1.97;;;10.70;99.90;;;;;;4971376;28;20829;-51
2022/09/27 01:07:11;;;;;;;2.33;2.13;;;10.90;99.90;;;;;;4972314;28;20450;-51
2022/09/27 01:09:38;;;;;;;3.23;2.23;;;10.90;99.90;;;;;;4971783;28;20526;-51
2022/09/27 01:12:17;;;;;;;2.80;2.43;;;10.90;99.90;;;;;;4971694;28;20483;-51
2022/09/27 01:15:04;;;;;;;2.43;2.23;;;11.10;99.90;;;;;;4971137;28;20498;-51
2022/09/27 01:17:43;;;;;;;2.77;2.30;;;10.90;99.90;;;;;;4971591;28;20930;-51
2022/09/27 01:20:40;;;;;;;6.63;2.77;;;10.70;99.90;;;;;;4971633;28;20499;-51
2022/09/27 01:23:32;;;;;;;2.30;1.93;;;10.80;99.90;;;;;;4971341;28;20449;-51
2022/09/27 01:26:11;;;;;;;2.17;1.73;;;11.00;99.90;;;;;;4971674;28;20562;-51
2022/09/27 01:28:51;;;;;;;2.07;1.83;;;11.00;99.90;;;;;;4971519;28;20975;-51
2022/09/27 01:31:26;;;;;;;3.13;1.97;;;11.00;99.90;;;;;;4971539;28;20473;-52
2022/09/27 01:34:01;;;;;;;3.33;2.20;;;10.90;99.90;;;;;;4971212;28;20511;-51
2022/09/27 01:36:37;;;;;;;2.67;2.47;;;11.00;99.90;;;;;;4971450;28;20445;-52
2022/09/27 01:39:17;;;;;;;2.67;2.33;;;11.00;99.90;;;;;;4971223;28;20474;-51
2022/09/27 01:41:54;;;;;;;3.00;2.47;;;11.00;99.90;;;;;;4971498;28;20874;-51
2022/09/27 01:44:29;;;;;;;2.90;2.00;;;10.90;99.90;;;;;;4971218;28;20480;-51
2022/09/27 01:47:03;;;;;;;3.03;2.50;;;10.90;99.90;;;;;;4970421;28;20476;-51
2022/09/27 01:49:36;;;;;;;2.43;2.23;;;10.90;99.90;;;;;;5028602;23;20499;-51
2022/09/27 01:52:08;;;;;;;2.80;2.20;;;10.90;99.90;;;;;;5010282;28;20534;-51
2022/09/27 01:54:40;;;;;;;3.07;2.27;;;11.00;99.90;;;;;;5009051;28;20452;-51
2022/09/27 01:57:10;;;;;;;3.37;2.70;;;10.90;99.90;;;;;;5009530;28;20483;-51
2022/09/27 01:59:44;;;;;;;3.33;3.10;;;10.90;99.90;;;;;;5010101;28;20519;-51
2022/09/27 02:02:16;;;;;;;2.77;2.40;;;10.60;99.90;;;;;;5010245;28;21004;-51
2022/09/27 02:04:47;;;;;;;3.73;2.40;;;10.80;99.90;;;;;;5009736;28;20472;-51
2022/09/27 02:07:18;;;;;;;3.20;2.47;;;10.40;99.90;;;;;;5009744;28;20436;-51
2022/09/27 02:09:50;;;;;;;2.90;2.40;;;10.30;99.90;;;;;;5009828;28;20521;-51
2022/09/27 02:12:23;;;;;;;2.80;2.40;;;10.40;99.90;;;;;;5010008;28;20475;-51
2022/09/27 02:14:53;;;;;;;3.53;2.57;;;10.60;99.90;;;;;;5009512;28;20443;-50
2022/09/27 02:17:31;;;;;;;4.07;2.80;;;10.70;99.90;;;;;;5010001;28;20458;-51
2022/09/27 02:20:07;;;;;;;2.97;2.50;;;10.80;99.90;;;;;;5009700;28;20475;-51
2022/09/27 02:22:39;;;;;;;3.40;2.67;;;11.00;99.90;;;;;;5009542;28;20475;-51
2022/09/27 02:25:13;;;;;;;5.60;3.10;;;11.10;99.90;;;;;;5009768;28;20546;-51
2022/09/27 02:27:47;;;;;;;6.50;3.67;;;11.20;99.90;;;;;;5010175;28;20470;-51
2022/09/27 02:30:16;;;;;;;5.53;3.70;;;11.10;99.90;;;;;;5009674;28;20495;-51
2022/09/27 02:32:45;;;;;;;3.17;2.60;;;11.10;99.90;;;;;;5009521;28;20452;-51
2022/09/27 02:35:22;;;;;;;5.10;3.00;;;10.90;99.90;;;;;;5009418;28;20513;-51
2022/09/27 02:37:50;;;;;;;5.17;3.20;;;10.60;99.90;;;;;;5009646;28;20450;-51
2022/09/27 02:40:17;;;;;;;3.40;3.03;;;10.60;99.90;;;;;;5009467;28;20472;-51
2022/09/27 02:42:45;;;;;;;3.60;2.80;;;10.50;99.90;;;;;;5009244;28;20495;-51
2022/09/27 02:45:14;;;;;;;3.83;2.63;;;10.60;99.90;;;;;;5009303;28;20520;-51
2022/09/27 02:48:01;;;;;;;4.10;2.60;;;10.60;99.90;;;;;;5008911;28;20532;-51
2022/09/27 02:50:46;;;;;;;3.13;2.83;;;10.80;99.90;;;;;;5009238;28;20945;-51
2022/09/27 02:53:22;;;;;;;3.87;2.50;;;10.90;99.90;;;;;;5009263;28;20807;-51
2022/09/27 02:55:56;;;;;;;3.70;3.10;;;11.00;99.90;;;;;;5009348;28;20477;-51
2022/09/27 02:58:31;;;;;;;3.30;2.57;;;11.00;99.90;;;;;;5008099;28;20479;-51
2022/09/27 03:01:06;;;;;;;4.87;3.10;;;10.40;99.90;;;;;;5009086;28;21001;-51
2022/09/27 03:03:40;;;;;;;3.10;2.80;;;10.50;99.90;;;;;;5008887;28;20937;-51
2022/09/27 03:06:10;;;;;;;3.50;2.57;;;10.50;99.90;;;;;;5009176;28;20480;-51
2022/09/27 03:08:38;;;;;;;4.10;2.97;;;10.70;99.90;;;;;;5008807;28;20487;-50
2022/09/27 03:11:05;;;;;;;4.03;2.73;;;10.70;99.90;;;;;;5008905;28;20486;-51
2022/09/27 03:13:33;;;;;;;2.97;2.70;;;10.70;99.90;;;;;;5008630;28;20504;-52
2022/09/27 03:16:00;;;;;;;4.10;2.40;;;10.60;99.90;;;;;;5008714;28;20789;-51
2022/09/27 03:18:27;;;;;;;4.17;3.07;;;10.30;99.90;;;;;;5008547;28;20864;-51
2022/09/27 03:20:56;;;;;;;3.30;3.00;;;10.50;99.90;;;;;;5008744;28;20500;-51
2022/09/27 03:23:23;;;;;;;3.00;2.53;;;10.60;99.90;;;;;;5008552;28;20502;-51
2022/09/27 03:25:50;;;;;;;5.00;3.00;;;10.50;99.90;;;;;;5008726;28;20542;-51
2022/09/27 03:28:18;;;;;;;3.63;2.90;;;10.50;99.90;;;;;;5008661;28;21003;-52
2022/09/27 03:30:45;;;;;;;2.93;2.53;;;10.70;99.90;;;;;;5008688;28;20829;-53
2022/09/27 03:33:13;;;;;;;3.23;2.57;;;10.60;99.90;;;;;;5008552;28;20516;-51
2022/09/27 03:35:41;;;;;;;3.23;2.20;;;10.20;99.90;;;;;;5008612;28;20503;-54
2022/09/27 03:38:10;;;;;;;2.80;2.40;;;9.80;99.90;;;;;;5008876;28;20444;-54
2022/09/27 03:40:37;;;;;;;3.10;2.80;;;9.60;99.90;;;;;;5008482;28;20905;-53
2022/09/27 03:43:04;;;;;;;2.80;2.60;;;10.00;99.90;;;;;;5008203;28;20447;-53
2022/09/27 03:45:31;;;;;;;3.87;3.30;;;10.00;99.90;;;;;;5008388;28;20491;-53
2022/09/27 03:47:58;;;;;;;6.43;3.33;;;10.40;99.90;;;;;;5008134;28;20494;-54
2022/09/27 03:50:25;;;;;;;5.33;3.33;;;10.60;99.90;;;;;;5008278;28;20552;-52
2022/09/27 03:52:53;;;;;;;3.97;2.57;;;10.40;99.90;;;;;;5008286;28;20517;-53
2022/09/27 03:55:22;;;;;;;2.57;2.33;;;10.50;99.90;;;;;;5009013;28;21015;-51
2022/09/27 03:57:49;;;;;;;3.40;2.67;;;9.90;99.90;;;;;;5011369;28;20447;-51
2022/09/27 04:00:16;;;;;;;3.53;3.23;;;9.50;99.90;;;;;;5011604;28;20467;-52
2022/09/27 04:02:44;;;;;;;3.40;3.10;;;9.50;99.90;;;;;;5011622;28;20448;-51
2022/09/27 04:05:11;;;;;;;5.77;3.33;;;9.40;99.90;;;;;;5012017;28;20488;-50
2022/09/27 04:07:38;;;;;;;4.53;2.70;;;9.40;99.90;;;;;;5012398;28;20475;-51
2022/09/27 04:10:06;;;;;;;2.70;2.50;;;9.50;99.90;;;;;;5012347;28;20494;-50
2022/09/27 04:12:35;;;;;;;2.00;1.60;;;9.70;99.90;;;;;;5012234;28;20467;-50
2022/09/27 04:15:02;;;;;;;1.37;1.00;;;9.90;99.90;;;;;;5011291;28;20998;-50
2022/09/27 04:17:29;;;;;;;1.40;1.30;;;9.90;99.90;;;;;;5011001;28;20479;-52
2022/09/27 04:19:56;;;;;;;1.37;1.27;;;9.60;99.90;;;;;;5011865;28;20488;-50
2022/09/27 04:22:23;;;;;;;1.40;1.30;;;9.50;99.90;;;;;;5012059;28;20455;-51
2022/09/27 04:24:50;;;;;;;1.23;0.83;;;9.50;99.90;;;;;;5010605;28;20455;-51
2022/09/27 04:27:17;;;;;;;1.10;0.53;;;9.30;99.90;;;;;;5010576;28;20471;-51
2022/09/27 04:29:46;;;;;;;2.40;1.10;;;9.40;99.90;;;;;;5011661;28;20494;-51
2022/09/27 04:32:13;;;;;;;5.27;3.80;;;9.70;99.90;;;;;;5011678;28;20506;-51
2022/09/27 04:37:25;;;;;;;2.63;1.90;;;9.90;99.90;;;;;;5008242;28;20511;-53
2022/09/27 04:39:52;;;;;;;11.77;9.17;;;9.90;99.90;;;;;;5007772;28;20471;-52
2022/09/27 04:42:19;;;;;;;3.77;2.43;;;9.90;99.90;;;;;;5007515;28;21010;-53
2022/09/27 04:44:47;;;;;;;2.03;1.50;;;10.20;99.90;;;;;;5007340;28;20810;-54
2022/09/27 04:47:14;;;;;;;5.00;2.10;;;10.20;99.90;;;;;;5007839;28;20487;-52
2022/09/27 04:49:41;;;;;;;2.00;1.60;;;10.40;99.90;;;;;;5007490;28;20560;-52
2022/09/27 04:52:08;;;;;;;2.57;2.17;;;10.40;99.90;;;;;;5007463;28;20480;-52
2022/09/27 04:54:35;;;;;;;2.63;1.90;;;10.50;99.90;;;;;;5007406;28;20482;-50
2022/09/27 04:57:02;;;;;;;2.33;1.27;;;10.50;99.90;;;;;;5007400;28;20449;-52
2022/09/27 04:59:30;;;;;;;2.23;1.47;;;10.60;99.90;;;;;;5007590;28;20899;-52
2022/09/27 05:01:59;;;;;;;1.60;1.10;;;10.60;99.90;;;;;;5007726;28;20443;-52
2022/09/27 05:04:26;;;;;;;1.83;1.30;;;10.70;99.90;;;;;;5007514;28;20456;-52
2022/09/27 05:06:53;;;;;;;2.33;1.40;;;10.70;99.90;;;;;;5007429;28;20516;-52
2022/09/27 05:09:20;;;;;;;1.50;1.30;;;10.70;99.90;;;;;;5007783;28;20468;-52
2022/09/27 05:11:47;;;;;;;1.30;1.17;;;10.50;99.90;;;;;;5007665;28;20443;-50
2022/09/27 05:14:14;;;;;;;1.60;1.00;;;10.20;99.90;;;;;;5006679;28;20961;-50
2022/09/27 05:16:42;;;;;;;3.00;1.90;;;9.80;99.90;;;;;;5007583;28;20439;-50
2022/09/27 05:19:10;;;;;;;1.93;1.40;;;10.10;99.90;;;;;;5007159;28;20460;-50
2022/09/27 05:21:37;;;;;;;1.63;0.90;;;10.20;99.90;;;;;;5008970;28;20482;-52
2022/09/27 05:24:04;;;;;;;3.10;1.50;;;10.10;99.90;;;;;;5010234;28;20883;-52
2022/09/27 05:26:31;;;;;;;2.47;1.90;;;10.20;99.90;;;;;;5010653;28;20507;-50
2022/09/27 05:28:58;;;;;;;2.70;1.80;;;10.30;99.90;;;;;;5010204;28;20498;-52
2022/09/27 05:31:25;;;;;;;2.40;1.83;;;10.40;99.90;;;;;;5010691;28;20504;-52
2022/09/27 05:33:52;;;;;;;3.07;1.90;;;10.40;99.90;;;;;;5010231;28;20444;-52
2022/09/27 05:36:22;;;;;;;3.10;2.10;;;10.40;99.90;;;;;;5010543;28;20534;-53
2022/09/27 05:38:49;;;;;;;1.80;1.40;;;10.40;99.90;;;;;;5010446;28;20527;-52
2022/09/27 05:41:16;;;;;;;4.40;1.57;;;10.20;99.90;;;;;;5010060;28;20500;-52
2022/09/27 05:43:45;;;;;;;1.07;0.77;;;10.10;99.90;;;;;;5010358;28;20448;-52
2022/09/27 05:46:12;;;;;;;1.27;0.80;;;9.70;99.90;;;;;;5010147;28;20453;-52
2022/09/27 05:48:39;;;;;;;5.10;3.87;;;9.50;99.90;;;;;;5010117;28;20448;-52
2022/09/27 05:51:06;;;;;;;3.57;2.27;;;9.70;99.90;;;;;;5010063;28;20451;-52
2022/09/27 05:53:35;;;;;;;2.40;1.17;;;9.70;99.90;;;;;;5009997;28;20505;-52
2022/09/27 05:56:03;;;;;;;1.70;0.80;;;9.50;99.90;;;;;;5010123;28;20451;-52
2022/09/27 05:58:30;;;;;;;2.07;1.07;;;9.50;99.90;;;;;;5010036;28;20966;-52
2022/09/27 06:00:56;;;;;;;3.80;1.50;;;9.50;99.90;;;;;;5010185;28;20552;-52
2022/09/27 06:03:23;;;;;;;1.67;1.00;;;9.70;99.90;;;;;;5010091;28;20443;-53
2022/09/27 06:05:50;;;;;;;1.87;0.80;;;9.90;99.90;;;;;;5010138;28;20467;-52
2022/09/27 06:08:19;;;;;;;3.50;1.70;;;9.90;99.90;;;;;;5009906;28;20524;-53
2022/09/27 06:10:47;;;;;;;8.70;5.10;;;10.10;99.90;;;;;;5009780;28;20468;-53
2022/09/27 06:13:16;;;;;;;4.90;2.70;;;10.00;99.90;;;;;;5009549;28;20447;-52
2022/09/27 06:15:45;;;;;;;1.87;1.27;;;9.90;99.90;;;;;;5009526;28;20444;-52
2022/09/27 06:18:15;;;;;;;8.50;3.83;;;9.80;99.90;;;;;;5009730;28;20538;-52
2022/09/27 06:20:42;;;;;;;3.90;2.30;;;9.90;99.90;;;;;;5009841;28;20464;-52
2022/09/27 06:23:11;;;;;;;4.23;3.20;;;10.00;99.90;;;;;;5009823;28;20465;-52
2022/09/27 06:25:39;;;;;;;5.07;3.80;;;9.90;99.90;;;;;;5009801;28;20484;-53
2022/09/27 06:28:09;;;;;;;3.90;3.17;;;10.00;99.90;;;;;;5009488;28;20483;-53
2022/09/27 06:30:39;;;;;;;2.73;1.80;;;10.10;99.90;;;;;;5009657;28;20485;-52
2022/09/27 06:33:06;;;;;;;3.63;1.70;;;10.10;99.90;;;;;;5009160;28;20448;-52
2022/09/27 06:35:35;;;;;;;2.10;1.13;;;10.20;99.90;;;;;;5009759;28;20475;-52
2022/09/27 06:38:03;;;;;;;1.50;1.00;;;10.40;99.90;;;;;;5009605;28;20440;-52
2022/09/27 06:40:30;;;;;;;1.30;1.07;;;10.10;99.90;;;;;;5009758;28;20468;-52
2022/09/27 06:43:03;;;;;;;1.20;0.80;;;10.30;99.90;;;;;;5009337;28;20444;-52
2022/09/27 06:45:32;;;;;;;1.60;0.97;;;10.20;99.90;;;;;;5009430;28;20470;-52
2022/09/27 06:48:01;;;;;;;1.17;0.83;;;10.20;99.90;;;;;;5008970;28;20475;-52
2022/09/27 06:50:28;;;;;;;1.50;0.80;;;10.30;99.90;;;;;;5009252;28;20982;-54
2022/09/27 06:52:55;;;;;;;1.13;0.73;;;10.30;99.90;;;;;;5009103;28;20455;-52
2022/09/27 06:55:22;;;;;;;1.23;0.73;;;10.20;99.90;;;;;;5009272;28;20448;-52
2022/09/27 07:00:35;;;;;;;1.13;0.60;;;10.30;99.90;;;;;;5009280;28;20528;-52
2022/09/27 07:03:02;;;;;;;1.30;0.80;;;10.40;99.90;;;;;;5008817;28;20439;-52
2022/09/27 07:05:29;;;;;;;2.00;1.13;;;10.40;99.90;;;;;;5009090;28;20519;-53
2022/09/27 07:07:57;;;;;;;2.30;1.63;;;10.50;99.90;;;;;;5008900;28;20858;-52
2022/09/27 07:10:25;;;;;;;5.40;2.43;;;10.30;99.90;;;;;;5009040;28;20463;-52
2022/09/27 07:12:52;;;;;;;3.40;2.00;;;10.30;99.90;;;;;;5008947;28;20440;-52
2022/09/27 07:15:21;;;;;;;1.60;1.07;;;10.40;99.90;;;;;;5008551;28;20475;-52
2022/09/27 07:17:56;;;;;;;1.17;0.73;;;10.30;99.90;;;;;;5009105;28;20445;-53
2022/09/27 07:20:23;;;;;;;1.53;0.60;;;10.30;99.90;;;;;;5008727;28;20996;-52
2022/09/27 07:22:51;;;;;;;1.20;0.53;;;10.40;99.90;;;;;;5008807;28;20448;-52
2022/09/27 07:25:17;;;;;;;1.53;0.70;;;10.40;99.90;;;;;;5008662;28;20449;-52
2022/09/27 07:27:44;;;;;;;2.13;0.80;;;10.40;99.90;;;;;;5008778;28;20914;-52
2022/09/27 07:30:12;;;;;;;1.00;0.60;;;10.40;99.90;;;;;;5008522;28;20514;-51
2022/09/27 07:32:39;;;;;;;1.10;0.63;;;10.50;99.90;;;;;;5008729;28;20993;-52
2022/09/27 07:35:09;;;;;;;1.10;0.70;;;10.20;99.90;;;;;;5008528;28;20451;-52
2022/09/27 07:37:37;;;;;;;1.60;1.10;;;10.20;99.90;;;;;;5008518;28;20443;-52
2022/09/27 07:40:07;;;;;;;1.40;1.07;;;10.20;99.90;;;;;;5008771;28;20468;-52
2022/09/27 07:42:36;;;;;;;2.23;1.23;;;10.20;99.90;;;;;;5008924;28;20448;-52
2022/09/27 07:45:06;;;;;;;2.60;1.73;;;9.90;99.90;;;;;;5007730;28;20509;-52
2022/09/27 07:47:33;;;;;;;1.70;1.40;;;9.50;99.90;;;;;;5008119;28;20608;-52
2022/09/27 07:50:00;;;;;;;2.53;1.43;;;9.30;99.90;;;;;;5009442;28;20508;-52
2022/09/27 07:52:29;;;;;;;6.23;3.03;;;9.80;99.90;;;;;;5008318;28;20479;-52
2022/09/27 07:54:55;;;;;;;5.83;3.57;;;10.10;99.90;;;;;;5008100;28;21025;-52
2022/09/27 07:57:23;;;;;;;2.80;1.30;;;10.20;99.90;;;;;;5008725;28;20496;-52
2022/09/27 07:59:50;;;;;;;1.90;1.40;;;10.40;99.90;;;;;;5008235;28;20475;-52
2022/09/27 08:02:17;;;;;;;2.10;0.80;;;10.30;99.90;;;;;;5008332;28;20496;-50
2022/09/27 08:04:45;;;;;;;2.13;1.40;;;10.30;99.90;;;;;;5007822;28;20474;-50
2022/09/27 08:07:13;;;;;;;1.30;1.00;;;10.40;99.90;;;;;;5008324;28;20484;-52
2022/09/27 08:09:41;;;;;;;2.03;1.20;;;10.40;99.90;;;;;;4998209;28;20472;-50
2022/09/27 08:12:09;;;;;;;1.50;1.00;;;10.40;99.90;;;;;;4988972;28;20452;-51
2022/09/27 08:14:36;;;;;;;1.50;1.10;;;10.50;99.90;;;;;;4987714;28;20452;-50
2022/09/27 08:17:03;;;;;;;1.70;1.17;;;10.50;99.90;;;;;;4988424;28;20941;-50
2022/09/27 08:19:30;;;;;;;1.60;1.30;;;10.50;99.90;;;;;;4987697;28;21052;-50
2022/09/27 08:21:57;;;;;;;1.80;1.20;;;10.60;99.90;;;;;;4988128;28;20481;-50
2022/09/27 08:24:24;;;;;;;1.97;1.20;;;10.60;99.90;;;;;;4994143;28;20440;-52
2022/09/27 08:26:53;;;;;;;2.30;1.30;;;10.60;99.90;;;;;;5008050;28;20748;-50
2022/09/27 08:29:20;;;;;;;1.67;1.27;;;10.70;99.90;;;;;;4991024;28;21041;-50
2022/09/27 08:31:47;;;;;;;2.50;1.50;;;10.80;99.90;;;;;;4988048;28;20449;-50
2022/09/27 08:34:13;;;;;;;1.73;1.43;;;10.80;99.90;;;;;;4987780;28;20477;-50
2022/09/27 08:36:43;;;;;;;2.27;1.27;;;10.80;99.90;;;;;;4987680;28;20472;-52
2022/09/27 08:39:10;;;;;;;2.77;1.20;;;10.80;99.90;;;;;;4986423;28;20518;-50
2022/09/27 08:41:40;;;;;;;1.70;1.40;;;10.80;99.90;;;;;;4986577;28;20480;-50
2022/09/27 08:44:17;;;;;;;1.90;1.50;;;10.80;99.90;;;;;;4987152;28;20438;-51
2022/09/27 08:46:53;;;;;;;2.30;1.47;;;10.80;99.90;;;;;;4987138;28;20448;-50
2022/09/27 08:49:27;;;;;;;2.17;1.50;;;10.70;99.90;;;;;;4987747;28;20472;-51
2022/09/27 08:51:57;;;;;;;1.83;1.43;;;10.80;99.90;;;;;;4987752;28;20444;-52
2022/09/27 08:54:28;;;;;;;2.90;1.40;;;10.90;99.90;;;;;;4987741;28;20495;-50
2022/09/27 08:57:02;;;;;;;3.20;1.60;;;10.90;99.90;;;;;;4990036;28;20531;-50
2022/09/27 08:59:35;;;;;;;1.40;1.20;;;10.80;99.90;;;;;;4991371;28;20468;-50
2022/09/27 09:02:04;;;;;;;1.20;1.00;;;10.80;99.90;;;;;;4991543;28;20582;-52
2022/09/27 09:04:35;;;;;;;1.40;1.10;;;10.90;99.90;;;;;;4990842;28;20776;-50
2022/09/27 09:07:14;;;;;;;1.50;0.90;;;10.90;99.90;;;;;;4991234;28;20661;-50
2022/09/27 09:09:51;;;;;;;1.30;0.97;;;11.00;99.90;;;;;;4991165;28;20967;-49
2022/09/27 09:12:46;;;;;;;2.50;2.00;;;11.00;99.90;;;;;;4991042;28;20493;-50
2022/09/27 09:15:31;;;;;;;2.73;1.40;;;11.10;99.90;;;;;;4990962;28;20445;-50
2022/09/27 09:18:20;;;;;;;1.77;0.90;;;11.00;99.90;;;;;;4990370;28;20485;-50
2022/09/27 09:21:07;;;;;;;1.40;0.87;;;11.00;99.90;;;;;;4991175;28;20523;-50
2022/09/27 09:23:51;;;;;;;1.50;1.33;;;11.00;99.90;;;;;;4991105;28;20476;-50
2022/09/27 09:26:25;;;;;;;2.37;1.33;;;11.00;99.90;;;;;;4991288;28;20444;-52
2022/09/27 09:29:05;;;;;;;2.00;1.47;;;11.00;99.90;;;;;;4990508;28;20526;-50
2022/09/27 09:31:41;;;;;;;1.77;1.50;;;11.00;99.90;;;;;;4991176;28;20453;-50
2022/09/27 09:34:14;;;;;;;2.03;1.20;;;11.00;99.90;;;;;;4990677;28;20454;-50
2022/09/27 09:36:46;;;;;;;2.97;1.10;;;11.20;99.90;;;;;;4990758;28;20441;-50
2022/09/27 09:39:17;;;;;;;2.20;1.67;;;11.00;99.90;;;;;;4990256;28;20495;-50
2022/09/27 09:41:57;;;;;;;1.33;0.80;;;11.00;99.90;;;;;;4990795;28;20485;-51
2022/09/27 09:44:29;;;;;;;2.03;1.17;;;11.00;99.90;;;;;;4990786;28;20452;-50
2022/09/27 09:47:01;;;;;;;1.67;1.10;;;11.00;99.90;;;;;;4990734;28;20494;-50
2022/09/27 09:49:31;;;;;;;1.83;1.13;;;11.10;99.90;;;;;;4990537;28;20907;-50
2022/09/27 09:52:02;;;;;;;1.17;0.97;;;11.20;99.90;;;;;;4990435;28;20927;-50
2022/09/27 09:54:33;;;;;;;1.50;0.97;;;11.30;99.90;;;;;;4990170;28;20502;-50
2022/09/27 09:57:06;;;;;;;1.20;0.83;;;11.20;99.90;;;;;;4990600;28;20445;-50
2022/09/27 09:59:38;;;;;;;1.50;1.00;;;11.30;99.90;;;;;;4990264;28;20500;-50
2022/09/27 10:02:31;;;;;;;1.10;0.60;;;11.40;99.90;;;;;;5007718;28;20452;-50
2022/09/27 10:04:58;;;;;;;1.80;0.90;;;11.20;99.90;;;;;;5020050;28;20468;-52
2022/09/27 10:07:26;;;;;;;1.83;0.97;;;11.30;99.90;;;;;;5028976;28;20534;-49
2022/09/27 10:09:56;;;;;;;1.43;1.03;;;11.20;99.90;;;;;;5009293;28;20493;-49
2022/09/27 10:12:23;;;;;;;1.40;0.80;;;11.20;99.90;;;;;;5009144;28;20476;-50
2022/09/27 10:14:51;;;;;;;1.07;0.67;;;11.30;99.90;;;;;;5017180;28;20444;-50
2022/09/27 10:17:24;;;;;;;1.17;0.77;;;11.30;99.90;;;;;;5009862;28;20441;-49
2022/09/27 10:19:53;;;;;;;1.20;1.00;;;11.30;99.90;;;;;;5009540;28;20487;-49
2022/09/27 10:22:29;;;;;;;1.70;1.17;;;11.30;99.90;;;;;;5014397;28;20452;-50
2022/09/27 10:24:58;;;;;;;2.97;2.50;;;11.30;99.90;;;;;;5018712;28;20439;-49
2022/09/27 10:27:26;;;;;;;10.33;6.53;;;11.30;99.90;;;;;;5017635;28;20441;-49
2022/09/27 10:30:00;;;;;;;2.20;1.90;;;11.40;99.90;;;;;;5025029;28;20461;-50
2022/09/27 10:32:32;;;;;;;5.70;4.20;;;11.50;99.90;;;;;;5009558;28;20509;-52
2022/09/27 10:35:20;;;;;;;2.60;1.73;;;11.40;99.90;;;;;;5003666;28;20529;-53
2022/09/27 10:37:47;;;;;;;2.70;1.07;;;11.50;99.90;;;;;;4999823;28;20436;-50
2022/09/27 10:40:27;;;;;;;1.40;1.00;;;11.50;99.90;;;;;;4997764;28;20453;-53
2022/09/27 10:42:54;;;;;;;2.03;1.00;;;11.60;99.90;;;;;;5001825;28;20497;-50
2022/09/27 10:45:27;;;;;;;2.23;1.10;;;11.60;99.90;;;;;;5005045;28;20436;-50
2022/09/27 10:47:56;;;;;;;1.40;1.03;;;11.70;99.90;;;;;;4997861;28;20508;-49
2022/09/27 10:50:26;;;;;;;1.37;0.90;;;11.70;99.90;;;;;;5001280;28;20471;-52
2022/09/27 10:53:05;;;;;;;2.70;1.47;;;11.60;99.90;;;;;;4997422;28;20445;-51
2022/09/27 10:55:34;;;;;;;2.30;1.37;;;11.70;99.90;;;;;;5005310;28;20546;-50
2022/09/27 10:58:03;;;;;;;1.50;0.97;;;11.80;99.90;;;;;;4998757;28;20532;-52
2022/09/27 11:00:32;;;;;;;1.50;1.20;;;11.90;99.90;;;;;;5000754;28;20538;-51
2022/09/27 11:03:05;;;;;;;2.23;1.43;;;11.80;99.90;;;;;;5007962;28;20441;-51
2022/09/27 11:05:35;;;;;;;1.60;1.20;;;11.70;99.90;;;;;;4988907;28;20506;-52
2022/09/27 11:08:21;;;;;;;2.73;1.10;;;11.40;99.90;;;;;;4994046;28;20480;-51
2022/09/27 11:11:05;;;;;;;1.50;1.07;;;11.60;99.90;;;;;;5005775;28;20571;-53
2022/09/27 11:13:34;;;;;;;1.83;1.20;;;11.90;99.90;;;;;;5019266;28;20440;-51
2022/09/27 11:16:23;;;;;;;1.57;1.20;;;11.90;99.90;;;;;;5027948;28;20934;-52
2022/09/27 11:19:02;;;;;;;1.40;1.00;;;12.00;99.90;;;;;;5027576;28;20501;-51
2022/09/27 11:21:41;;;;;;;1.40;0.83;;;12.20;99.90;;;;;;5028491;28;20454;-53
2022/09/27 11:24:24;;;;;;;1.27;0.80;;;12.00;99.90;;;;;;5028333;28;20853;-51
2022/09/27 11:27:04;;;;;;;1.53;0.90;;;12.10;99.90;;;;;;5028463;28;21002;-51
2022/09/27 11:29:43;;;;;;;2.23;0.90;;;12.20;99.90;;;;;;5028256;28;20493;-51
2022/09/27 11:32:27;;;;;;;1.50;1.00;;;12.00;99.90;;;;;;5028526;28;20443;-53
2022/09/27 11:35:14;;;;;;;1.00;0.70;;;11.90;99.90;;;;;;5028083;28;20819;-51
2022/09/27 11:37:51;;;;;;;1.00;0.60;;;11.90;99.90;;;;;;5028415;28;21027;-51
2022/09/27 11:40:27;;;;;;;1.10;0.60;;;12.00;99.90;;;;;;5028368;28;20523;-51
2022/09/27 11:43:26;;;;;;;0.93;0.57;;;12.30;99.90;;;;;;5027782;28;20455;-51
2022/09/27 11:46:06;;;;;;;1.37;0.70;;;12.50;99.90;;;;;;5028966;28;20443;-51
2022/09/27 11:49:01;;;;;;;1.63;0.70;;;12.70;99.90;;;;;;5027917;28;20515;-51
2022/09/27 11:51:49;;;;;;;1.20;0.80;;;12.70;99.90;;;;;;5025014;28;20466;-51
2022/09/27 11:54:30;;;;;;;1.00;0.63;;;12.70;99.90;;;;;;5025904;28;20854;-54
2022/09/27 11:57:04;;;;;;;1.20;0.70;;;12.20;99.90;;;;;;5024952;28;20949;-52
2022/09/27 12:00:06;;;;;;;1.67;0.67;;;11.90;99.90;;;;;;5026861;28;20880;-52
2022/09/27 12:02:57;;;;;;;1.77;1.10;;;11.80;99.90;;;;;;5027315;28;20502;-51
2022/09/27 12:05:36;;;;;;;1.20;0.80;;;11.50;99.90;;;;;;5029160;28;20492;-52
2022/09/27 12:08:22;;;;;;;2.70;0.80;;;11.30;99.90;;;;;;5029128;28;20482;-52
2022/09/27 12:10:52;;;;;;;1.00;0.90;;;11.30;99.90;;;;;;5028053;28;20558;-52
2022/09/27 12:13:34;;;;;;;3.37;1.10;;;11.40;99.90;;;;;;5027833;28;20481;-51
2022/09/27 12:16:02;;;;;;;2.43;0.90;;;11.40;99.90;;;;;;5008177;28;20440;-52
2022/09/27 12:18:33;;;;;;;2.33;0.80;;;10.80;99.90;;;;;;4992831;28;20448;-52
2022/09/27 12:21:02;;;;;;;1.47;0.60;;;10.90;99.90;;;;;;4992311;28;20848;-51
2022/09/27 12:23:39;;;;;;;2.07;1.50;;;10.60;99.90;;;;;;4992259;28;20926;-51
2022/09/27 12:26:10;;;;;;;2.50;0.90;;;10.60;99.90;;;;;;4992042;28;20449;-51
2022/09/27 12:28:45;;;;;;;1.53;0.80;;;10.40;99.90;;;;;;4991903;28;20533;-51
2022/09/27 12:31:17;;;;;;;1.00;0.60;;;10.40;99.90;;;;;;4996990;28;20977;-53
2022/09/27 12:33:50;;;;;;;1.50;0.70;;;10.40;99.90;;;;;;4997721;28;20488;-53
2022/09/27 12:36:20;;;;;;;0.90;0.50;;;10.40;99.90;;;;;;4998277;28;20536;-51
2022/09/27 12:38:56;;;;;;;1.00;0.50;;;10.50;99.90;;;;;;4997490;28;21041;-51
2022/09/27 12:41:25;;;;;;;1.37;0.63;;;10.50;99.90;;;;;;4997491;28;20475;-52
2022/09/27 12:43:53;;;;;;;1.00;0.53;;;10.50;99.90;;;;;;4997517;28;20574;-51
2022/09/27 12:46:32;;;;;;;0.93;0.53;;;10.50;99.90;;;;;;4995665;28;20447;-51
2022/09/27 12:49:09;;;;;;;1.10;0.53;;;10.30;99.90;;;;;;4994689;28;20492;-52
2022/09/27 12:51:39;;;;;;;1.10;0.60;;;10.50;99.90;;;;;;4994306;28;20911;-50
2022/09/27 12:54:44;;;;;;;2.67;1.80;;;10.70;99.90;;;;;;4994079;28;20535;-50
2022/09/27 12:57:26;;;;;;;2.30;2.10;;;11.00;99.90;;;;;;4994602;28;20448;-52
2022/09/27 13:00:06;;;;;;;1.30;0.80;;;11.20;99.90;;;;;;4994291;28;20492;-52
2022/09/27 13:02:56;;;;;;;1.47;0.93;;;11.20;99.90;;;;;;4994866;28;20479;-50
2022/09/27 13:05:51;;;;;;;1.60;1.03;;;11.40;99.90;;;;;;4993709;28;20935;-50
2022/09/27 13:08:44;;;;;;;2.17;1.47;;;11.40;99.90;;;;;;4993945;28;20531;-53
2022/09/27 13:11:18;;;;;;;1.40;1.00;;;11.50;99.90;;;;;;4994261;28;20532;-51
2022/09/27 13:13:45;;;;;;;1.63;1.20;;;11.60;99.90;;;;;;4993708;28;20504;-50
2022/09/27 13:16:12;;;;;;;2.10;1.00;;;11.80;99.90;;;;;;4994467;28;20489;-50
2022/09/27 13:19:00;;;;;;;2.60;1.63;;;11.80;99.90;;;;;;4994208;28;20531;-50